createdAt,value
2018-08-16T00:00:09.278Z,20.84
2018-08-16T00:00:33.030Z,20.83
2018-08-16T00:00:54.804Z,20.85
2018-08-16T00:01:16.585Z,20.84
2018-08-16T00:01:38.351Z,20.84
2018-08-16T00:02:00.179Z,20.85
2018-08-16T00:02:21.992Z,20.85
2018-08-16T00:02:44.550Z,20.85
2018-08-16T00:03:06.303Z,20.84
2018-08-16T00:03:28.063Z,20.85
2018-08-16T00:03:49.826Z,20.85
2018-08-16T00:04:11.592Z,20.84
2018-08-16T00:04:33.353Z,20.85
2018-08-16T00:04:55.416Z,20.84
2018-08-16T00:05:17.296Z,20.84
2018-08-16T00:05:39.108Z,20.85
2018-08-16T00:06:00.868Z,20.85
2018-08-16T00:06:22.627Z,20.84
2018-08-16T00:06:44.379Z,20.84
2018-08-16T00:07:06.137Z,20.83
2018-08-16T00:07:27.911Z,20.83
2018-08-16T00:07:50.846Z,20.83
2018-08-16T00:08:12.652Z,20.83
2018-08-16T00:08:34.408Z,20.84
2018-08-16T00:08:56.205Z,20.83
2018-08-16T00:09:17.958Z,20.83
2018-08-16T00:09:39.713Z,20.84
2018-08-16T00:10:01.503Z,20.84
2018-08-16T00:10:23.280Z,20.82
2018-08-16T00:10:45.036Z,20.82
2018-08-16T00:11:06.792Z,20.83
2018-08-16T00:11:28.558Z,20.83
2018-08-16T00:11:50.320Z,20.85
2018-08-16T00:12:12.091Z,20.84
2018-08-16T00:12:33.857Z,20.83
2018-08-16T00:12:55.628Z,20.83
2018-08-16T00:13:17.386Z,20.83
2018-08-16T00:13:39.161Z,20.83
2018-08-16T00:14:00.980Z,20.83
2018-08-16T00:14:22.740Z,20.84
2018-08-16T00:14:44.491Z,20.83
2018-08-16T00:15:07.219Z,20.83
2018-08-16T00:15:28.983Z,20.84
2018-08-16T00:15:50.740Z,20.83
2018-08-16T00:16:12.493Z,20.82
2018-08-16T00:16:34.249Z,20.82
2018-08-16T00:16:56.002Z,20.82
2018-08-16T00:17:17.746Z,20.81
2018-08-16T00:17:40.007Z,20.82
2018-08-16T00:18:01.793Z,20.83
2018-08-16T00:18:23.554Z,20.83
2018-08-16T00:18:45.305Z,20.84
2018-08-16T00:19:07.079Z,20.85
2018-08-16T00:19:28.853Z,20.84
2018-08-16T00:19:50.611Z,20.82
2018-08-16T00:20:12.758Z,20.83
2018-08-16T00:20:34.529Z,20.83
2018-08-16T00:20:56.296Z,20.84
2018-08-16T00:21:18.064Z,20.84
2018-08-16T00:21:40.358Z,20.83
2018-08-16T00:22:02.363Z,20.83
2018-08-16T00:22:25.231Z,20.82
2018-08-16T00:22:47.278Z,20.83
2018-08-16T00:23:09.022Z,20.83
2018-08-16T00:23:30.766Z,20.83
2018-08-16T00:23:52.532Z,20.83
2018-08-16T00:24:14.278Z,20.83
2018-08-16T00:24:36.348Z,20.83
2018-08-16T00:24:58.103Z,20.82
2018-08-16T00:25:19.877Z,20.82
2018-08-16T00:25:41.651Z,20.82
2018-08-16T00:26:03.411Z,20.82
2018-08-16T00:26:25.166Z,20.82
2018-08-16T00:26:46.916Z,20.83
2018-08-16T00:27:08.691Z,20.81
2018-08-16T00:27:30.542Z,20.82
2018-08-16T00:27:52.298Z,20.83
2018-08-16T00:28:14.042Z,20.84
2018-08-16T00:28:35.804Z,20.83
2018-08-16T00:28:57.612Z,20.82
2018-08-16T00:29:19.391Z,20.82
2018-08-16T00:29:41.146Z,20.82
2018-08-16T00:30:02.975Z,20.82
2018-08-16T00:30:24.795Z,20.82
2018-08-16T00:30:46.582Z,20.82
2018-08-16T00:31:08.344Z,20.82
2018-08-16T00:31:30.110Z,20.82
2018-08-16T00:31:51.863Z,20.83
2018-08-16T00:32:13.621Z,20.83
2018-08-16T00:32:35.412Z,20.83
2018-08-16T00:32:57.174Z,20.84
2018-08-16T00:33:18.927Z,20.83
2018-08-16T00:33:40.690Z,20.84
2018-08-16T00:34:02.455Z,20.84
2018-08-16T00:34:24.207Z,20.83
2018-08-16T00:34:45.964Z,20.82
2018-08-16T00:35:08.695Z,20.82
2018-08-16T00:35:30.466Z,20.82
2018-08-16T00:35:52.276Z,20.81
2018-08-16T00:36:14.038Z,20.82
2018-08-16T00:36:35.798Z,20.80
2018-08-16T00:36:57.542Z,20.81
2018-08-16T00:37:19.299Z,20.81
2018-08-16T00:37:41.060Z,20.81
2018-08-16T00:38:02.855Z,20.80
2018-08-16T00:38:24.601Z,20.82
2018-08-16T00:38:46.350Z,20.83
2018-08-16T00:39:08.782Z,20.83
2018-08-16T00:39:30.539Z,20.84
2018-08-16T00:39:52.647Z,20.84
2018-08-16T00:40:16.560Z,20.84
2018-08-16T00:40:38.326Z,20.82
2018-08-16T00:41:00.079Z,20.83
2018-08-16T00:41:21.852Z,20.83
2018-08-16T00:41:43.615Z,20.84
2018-08-16T00:42:05.374Z,20.84
2018-08-16T00:42:27.155Z,20.83
2018-08-16T00:42:48.962Z,20.84
2018-08-16T00:43:10.770Z,20.84
2018-08-16T00:43:32.568Z,20.83
2018-08-16T00:43:54.321Z,20.82
2018-08-16T00:44:16.075Z,20.82
2018-08-16T00:44:37.825Z,20.82
2018-08-16T00:44:59.581Z,20.80
2018-08-16T00:45:21.341Z,20.80
2018-08-16T00:45:43.126Z,20.80
2018-08-16T00:46:04.878Z,20.81
2018-08-16T00:46:26.642Z,20.81
2018-08-16T00:46:48.397Z,20.82
2018-08-16T00:47:10.160Z,20.83
2018-08-16T00:47:32.808Z,20.84
2018-08-16T00:47:54.583Z,20.83
2018-08-16T00:48:16.354Z,20.83
2018-08-16T00:48:38.160Z,20.83
2018-08-16T00:48:59.918Z,20.83
2018-08-16T00:49:21.676Z,20.82
2018-08-16T00:49:43.549Z,20.82
2018-08-16T00:50:05.471Z,20.82
2018-08-16T00:50:27.227Z,20.81
2018-08-16T00:50:49.017Z,20.81
2018-08-16T00:51:10.784Z,20.81
2018-08-16T00:51:32.539Z,20.80
2018-08-16T00:51:54.318Z,20.79
2018-08-16T00:52:16.139Z,20.79
2018-08-16T00:52:37.965Z,20.79
2018-08-16T00:52:59.736Z,20.79
2018-08-16T00:53:21.487Z,20.79
2018-08-16T00:53:43.253Z,20.80
2018-08-16T00:54:05.311Z,20.80
2018-08-16T00:54:27.072Z,20.80
2018-08-16T00:54:48.835Z,20.80
2018-08-16T00:55:11.560Z,20.80
2018-08-16T00:55:33.312Z,20.80
2018-08-16T00:55:55.092Z,20.80
2018-08-16T00:56:16.839Z,20.80
2018-08-16T00:56:38.601Z,20.79
2018-08-16T00:57:00.362Z,20.80
2018-08-16T00:57:22.127Z,20.80
2018-08-16T00:57:43.870Z,20.80
2018-08-16T00:58:05.618Z,20.80
2018-08-16T00:58:27.366Z,20.80
2018-08-16T00:58:49.146Z,20.81
2018-08-16T00:59:10.932Z,20.80
2018-08-16T00:59:32.680Z,20.80
2018-08-16T00:59:54.904Z,20.80
2018-08-16T01:00:17.429Z,20.82
2018-08-16T01:00:39.170Z,20.80
2018-08-16T01:01:01.017Z,20.80
2018-08-16T01:01:22.862Z,20.82
2018-08-16T01:01:44.648Z,20.81
2018-08-16T01:02:06.449Z,20.81
2018-08-16T01:02:28.217Z,20.82
2018-08-16T01:02:49.975Z,20.80
2018-08-16T01:03:11.731Z,20.79
2018-08-16T01:03:33.635Z,20.79
2018-08-16T01:03:55.407Z,20.79
2018-08-16T01:04:17.168Z,20.78
2018-08-16T01:04:39.043Z,20.77
2018-08-16T01:05:00.786Z,20.78
2018-08-16T01:05:22.549Z,20.77
2018-08-16T01:05:44.321Z,20.76
2018-08-16T01:06:06.075Z,20.76
2018-08-16T01:06:27.848Z,20.77
2018-08-16T01:06:49.625Z,20.77
2018-08-16T01:07:11.373Z,20.78
2018-08-16T01:07:33.178Z,20.77
2018-08-16T01:07:54.990Z,20.75
2018-08-16T01:08:16.747Z,20.76
2018-08-16T01:08:39.504Z,20.77
2018-08-16T01:09:01.273Z,20.77
2018-08-16T01:09:23.046Z,20.76
2018-08-16T01:09:44.848Z,20.78
2018-08-16T01:10:07.365Z,20.78
2018-08-16T01:10:29.881Z,20.77
2018-08-16T01:10:51.676Z,20.78
2018-08-16T01:11:13.462Z,20.77
2018-08-16T01:11:35.213Z,20.77
2018-08-16T01:11:56.970Z,20.76
2018-08-16T01:12:18.922Z,20.77
2018-08-16T01:12:41.242Z,20.76
2018-08-16T01:13:02.997Z,20.77
2018-08-16T01:13:24.751Z,20.75
2018-08-16T01:13:46.506Z,20.76
2018-08-16T01:14:09.015Z,20.75
2018-08-16T01:14:30.763Z,20.76
2018-08-16T01:14:52.510Z,20.77
2018-08-16T01:15:14.844Z,20.75
2018-08-16T01:15:36.607Z,20.75
2018-08-16T01:15:58.373Z,20.77
2018-08-16T01:16:20.110Z,20.77
2018-08-16T01:16:41.908Z,20.78
2018-08-16T01:17:03.698Z,20.79
2018-08-16T01:17:25.500Z,20.79
2018-08-16T01:17:47.258Z,20.79
2018-08-16T01:18:09.011Z,20.79
2018-08-16T01:18:30.805Z,20.78
2018-08-16T01:18:52.542Z,20.78
2018-08-16T01:19:14.298Z,20.78
2018-08-16T01:19:36.052Z,20.76
2018-08-16T01:19:58.390Z,20.77
2018-08-16T01:20:20.187Z,20.78
2018-08-16T01:20:41.938Z,20.78
2018-08-16T01:21:03.705Z,20.78
2018-08-16T01:21:25.462Z,20.78
2018-08-16T01:21:47.215Z,20.76
2018-08-16T01:22:09.505Z,20.80
2018-08-16T01:22:31.257Z,20.78
2018-08-16T01:22:53.034Z,20.78
2018-08-16T01:23:14.786Z,20.78
2018-08-16T01:23:36.535Z,20.78
2018-08-16T01:23:58.279Z,20.78
2018-08-16T01:24:20.035Z,20.78
2018-08-16T01:24:42.434Z,20.78
2018-08-16T01:26:07.419Z,20.78
2018-08-16T01:26:29.219Z,20.77
2018-08-16T01:26:50.969Z,20.77
2018-08-16T01:27:12.933Z,20.77
2018-08-16T01:27:34.698Z,20.76
2018-08-16T01:27:56.463Z,20.76
2018-08-16T01:28:18.257Z,20.77
2018-08-16T01:28:40.016Z,20.75
2018-08-16T01:29:01.775Z,20.76
2018-08-16T01:29:23.626Z,20.77
2018-08-16T01:29:45.420Z,20.76
2018-08-16T01:30:07.458Z,20.77
2018-08-16T01:30:29.220Z,20.77
2018-08-16T01:30:57.736Z,20.76
2018-08-16T01:31:19.547Z,20.76
2018-08-16T01:31:41.317Z,20.77
2018-08-16T01:32:03.066Z,20.76
2018-08-16T01:32:24.827Z,20.75
2018-08-16T01:32:46.578Z,20.74
2018-08-16T01:33:08.355Z,20.74
2018-08-16T01:33:31.152Z,20.73
2018-08-16T01:33:52.923Z,20.73
2018-08-16T01:34:14.692Z,20.73
2018-08-16T01:34:36.477Z,20.73
2018-08-16T01:34:58.231Z,20.72
2018-08-16T01:35:19.989Z,20.72
2018-08-16T01:35:41.824Z,20.73
2018-08-16T01:36:03.548Z,20.73
2018-08-16T01:36:25.308Z,20.76
2018-08-16T01:36:47.642Z,20.73
2018-08-16T01:37:09.399Z,20.74
2018-08-16T01:37:31.151Z,20.76
2018-08-16T01:37:52.912Z,20.76
2018-08-16T01:38:14.667Z,20.75
2018-08-16T01:38:36.426Z,20.75
2018-08-16T01:38:58.192Z,20.75
2018-08-16T01:39:19.937Z,20.75
2018-08-16T01:39:41.686Z,20.76
2018-08-16T01:40:03.440Z,20.75
2018-08-16T01:40:25.199Z,20.76
2018-08-16T01:40:46.943Z,20.75
2018-08-16T01:41:08.729Z,20.77
2018-08-16T01:41:30.516Z,20.75
2018-08-16T01:41:52.274Z,20.75
2018-08-16T01:42:14.062Z,20.75
2018-08-16T01:42:36.324Z,20.75
2018-08-16T01:42:58.089Z,20.75
2018-08-16T01:43:19.872Z,20.75
2018-08-16T01:43:41.716Z,20.74
2018-08-16T01:44:03.474Z,20.74
2018-08-16T01:44:25.235Z,20.74
2018-08-16T01:44:46.991Z,20.73
2018-08-16T01:45:09.597Z,20.74
2018-08-16T01:45:31.374Z,20.75
2018-08-16T01:45:53.545Z,20.75
2018-08-16T01:46:15.356Z,20.77
2018-08-16T01:46:37.113Z,20.75
2018-08-16T01:46:58.859Z,20.77
2018-08-16T01:47:20.626Z,20.76
2018-08-16T01:47:42.395Z,20.74
2018-08-16T01:48:04.206Z,20.74
2018-08-16T01:48:26.030Z,20.74
2018-08-16T01:48:47.828Z,20.75
2018-08-16T01:49:09.586Z,20.77
2018-08-16T01:49:34.456Z,20.76
2018-08-16T01:49:56.219Z,20.76
2018-08-16T01:50:17.976Z,20.77
2018-08-16T01:50:39.851Z,20.75
2018-08-16T01:51:01.603Z,20.77
2018-08-16T01:51:23.371Z,20.76
2018-08-16T01:51:45.127Z,20.74
2018-08-16T01:52:07.100Z,20.76
2018-08-16T01:52:28.854Z,20.74
2018-08-16T01:52:50.610Z,20.75
2018-08-16T01:53:12.360Z,20.73
2018-08-16T01:53:34.122Z,20.73
2018-08-16T01:53:55.932Z,20.74
2018-08-16T01:54:17.721Z,20.74
2018-08-16T01:54:39.518Z,20.75
2018-08-16T01:55:01.295Z,20.73
2018-08-16T01:55:23.063Z,20.73
2018-08-16T01:55:44.846Z,20.73
2018-08-16T01:56:06.635Z,20.72
2018-08-16T01:56:28.385Z,20.73
2018-08-16T01:56:50.147Z,20.74
2018-08-16T01:57:11.956Z,20.72
2018-08-16T01:57:33.753Z,20.75
2018-08-16T01:57:55.512Z,20.75
2018-08-16T01:58:17.271Z,20.74
2018-08-16T01:58:39.031Z,20.75
2018-08-16T01:59:00.803Z,20.75
2018-08-16T01:59:22.574Z,20.74
2018-08-16T01:59:44.339Z,20.75
2018-08-16T02:00:06.099Z,20.74
2018-08-16T02:00:27.856Z,20.75
2018-08-16T02:00:49.647Z,20.75
2018-08-16T02:01:11.422Z,20.75
2018-08-16T02:01:33.182Z,20.76
2018-08-16T02:01:55.234Z,20.77
2018-08-16T02:02:17.016Z,20.77
2018-08-16T02:02:39.231Z,20.76
2018-08-16T02:03:01.038Z,20.75
2018-08-16T02:03:22.790Z,20.77
2018-08-16T02:03:44.543Z,20.75
2018-08-16T02:04:06.354Z,20.75
2018-08-16T02:04:28.150Z,20.75
2018-08-16T02:04:49.947Z,20.75
2018-08-16T02:05:11.767Z,20.75
2018-08-16T02:05:33.482Z,20.75
2018-08-16T02:05:55.243Z,20.75
2018-08-16T02:06:17.060Z,20.75
2018-08-16T02:06:38.907Z,20.76
2018-08-16T02:07:00.668Z,20.75
2018-08-16T02:07:22.448Z,20.76
2018-08-16T02:07:44.241Z,20.78
2018-08-16T02:08:05.999Z,20.76
2018-08-16T02:08:27.741Z,20.77
2018-08-16T02:08:49.492Z,20.75
2018-08-16T02:09:11.259Z,20.76
2018-08-16T02:09:33.028Z,20.73
2018-08-16T02:09:55.424Z,20.73
2018-08-16T02:10:17.213Z,20.74
2018-08-16T02:10:38.978Z,20.74
2018-08-16T02:11:00.724Z,20.73
2018-08-16T02:11:22.484Z,20.74
2018-08-16T02:11:44.672Z,20.74
2018-08-16T02:12:07.362Z,20.75
2018-08-16T02:12:29.140Z,20.74
2018-08-16T02:12:50.891Z,20.75
2018-08-16T02:13:12.637Z,20.74
2018-08-16T02:13:34.387Z,20.74
2018-08-16T02:13:56.168Z,20.73
2018-08-16T02:14:18.497Z,20.74
2018-08-16T02:14:40.261Z,20.75
2018-08-16T02:15:02.007Z,20.74
2018-08-16T02:15:23.759Z,20.73
2018-08-16T02:15:46.741Z,20.73
2018-08-16T02:16:08.509Z,20.74
2018-08-16T02:16:30.284Z,20.73
2018-08-16T02:16:52.992Z,20.74
2018-08-16T02:17:14.755Z,20.73
2018-08-16T02:17:36.517Z,20.73
2018-08-16T02:20:24.371Z,20.74
2018-08-16T02:20:46.130Z,20.74
2018-08-16T02:21:07.875Z,20.74
2018-08-16T02:21:30.113Z,20.73
2018-08-16T02:21:51.904Z,20.73
2018-08-16T02:22:13.663Z,20.74
2018-08-16T02:22:35.425Z,20.73
2018-08-16T02:22:57.184Z,20.75
2018-08-16T02:23:18.952Z,20.75
2018-08-16T02:23:40.704Z,20.74
2018-08-16T02:24:02.931Z,20.74
2018-08-16T02:24:24.713Z,20.74
2018-08-16T02:24:46.457Z,20.74
2018-08-16T02:25:08.240Z,20.74
2018-08-16T02:25:30.043Z,20.73
2018-08-16T02:25:51.790Z,20.74
2018-08-16T02:26:13.562Z,20.74
2018-08-16T02:26:35.323Z,20.73
2018-08-16T02:26:57.127Z,20.73
2018-08-16T02:27:18.942Z,20.75
2018-08-16T02:27:40.778Z,20.74
2018-08-16T02:28:02.534Z,20.76
2018-08-16T02:28:24.335Z,20.74
2018-08-16T02:28:46.090Z,20.75
2018-08-16T02:29:07.838Z,20.74
2018-08-16T02:29:29.638Z,20.74
2018-08-16T02:29:51.391Z,20.75
2018-08-16T02:30:13.138Z,20.75
2018-08-16T02:30:34.901Z,20.75
2018-08-16T02:30:56.682Z,20.76
2018-08-16T02:31:18.447Z,20.74
2018-08-16T02:31:40.221Z,20.74
2018-08-16T02:32:01.968Z,20.74
2018-08-16T02:32:23.723Z,20.74
2018-08-16T02:32:45.495Z,20.74
2018-08-16T02:33:07.286Z,20.72
2018-08-16T02:33:29.084Z,20.72
2018-08-16T02:33:50.812Z,20.74
2018-08-16T02:34:12.593Z,20.73
2018-08-16T02:34:34.397Z,20.72
2018-08-16T02:34:56.147Z,20.72
2018-08-16T02:35:17.908Z,20.73
2018-08-16T02:35:39.647Z,20.72
2018-08-16T02:36:01.393Z,20.73
2018-08-16T02:36:23.462Z,20.72
2018-08-16T02:36:45.219Z,20.72
2018-08-16T02:37:07.020Z,20.71
2018-08-16T02:37:28.812Z,20.72
2018-08-16T02:37:50.593Z,20.73
2018-08-16T02:38:12.348Z,20.73
2018-08-16T02:38:34.110Z,20.73
2018-08-16T02:38:56.240Z,20.74
2018-08-16T02:39:18.002Z,20.73
2018-08-16T02:39:39.773Z,20.72
2018-08-16T02:40:01.591Z,20.73
2018-08-16T02:40:23.333Z,20.72
2018-08-16T02:40:45.099Z,20.71
2018-08-16T02:41:06.987Z,20.71
2018-08-16T02:41:28.751Z,20.72
2018-08-16T02:41:50.511Z,20.71
2018-08-16T02:42:12.292Z,20.72
2018-08-16T02:42:34.089Z,20.71
2018-08-16T02:42:55.856Z,20.72
2018-08-16T02:43:17.625Z,20.72
2018-08-16T02:43:39.373Z,20.71
2018-08-16T02:44:01.131Z,20.71
2018-08-16T02:44:22.916Z,20.70
2018-08-16T02:44:44.733Z,20.72
2018-08-16T02:45:06.510Z,20.72
2018-08-16T02:45:28.271Z,20.72
2018-08-16T02:45:50.027Z,20.71
2018-08-16T02:46:11.780Z,20.72
2018-08-16T02:46:33.566Z,20.72
2018-08-16T02:46:55.313Z,20.72
2018-08-16T02:47:17.086Z,20.72
2018-08-16T02:47:38.855Z,20.71
2018-08-16T02:48:00.603Z,20.72
2018-08-16T02:48:22.377Z,20.72
2018-08-16T02:48:44.135Z,20.72
2018-08-16T02:49:06.103Z,20.72
2018-08-16T02:49:27.859Z,20.72
2018-08-16T02:49:49.615Z,20.71
2018-08-16T02:50:11.394Z,20.71
2018-08-16T02:50:33.229Z,20.71
2018-08-16T02:50:55.080Z,20.70
2018-08-16T02:51:16.779Z,20.70
2018-08-16T02:51:38.565Z,20.71
2018-08-16T02:52:00.388Z,20.69
2018-08-16T02:52:22.177Z,20.71
2018-08-16T02:52:43.948Z,20.71
2018-08-16T02:53:05.694Z,20.70
2018-08-16T02:53:27.463Z,20.70
2018-08-16T02:53:49.257Z,20.70
2018-08-16T02:54:11.042Z,20.70
2018-08-16T02:54:32.852Z,20.69
2018-08-16T02:54:54.715Z,20.68
2018-08-16T02:55:16.466Z,20.70
2018-08-16T02:55:38.237Z,20.68
2018-08-16T02:56:00.107Z,20.70
2018-08-16T02:56:21.859Z,20.68
2018-08-16T02:56:43.610Z,20.69
2018-08-16T02:57:05.369Z,20.68
2018-08-16T02:57:27.113Z,20.68
2018-08-16T02:57:48.874Z,20.68
2018-08-16T02:58:10.637Z,20.69
2018-08-16T02:58:32.452Z,20.68
2018-08-16T02:58:54.216Z,20.70
2018-08-16T02:59:15.969Z,20.70
2018-08-16T02:59:37.744Z,20.69
2018-08-16T02:59:59.508Z,20.69
2018-08-16T03:00:21.272Z,20.69
2018-08-16T03:00:43.354Z,20.68
2018-08-16T03:01:05.280Z,20.68
2018-08-16T03:01:27.028Z,20.67
2018-08-16T03:01:48.786Z,20.68
2018-08-16T03:02:10.525Z,20.69
2018-08-16T03:02:32.270Z,20.70
2018-08-16T03:02:54.023Z,20.70
2018-08-16T03:03:15.778Z,20.70
2018-08-16T03:03:37.534Z,20.70
2018-08-16T03:03:59.287Z,20.68
2018-08-16T03:04:21.038Z,20.68
2018-08-16T03:04:42.796Z,20.68
2018-08-16T03:05:04.559Z,20.67
2018-08-16T03:05:26.325Z,20.67
2018-08-16T03:05:48.097Z,20.67
2018-08-16T03:06:09.921Z,20.67
2018-08-16T03:06:31.686Z,20.68
2018-08-16T03:06:53.464Z,20.68
2018-08-16T03:07:15.219Z,20.67
2018-08-16T03:07:37.068Z,20.66
2018-08-16T03:07:58.815Z,20.67
2018-08-16T03:08:20.604Z,20.67
2018-08-16T03:08:42.380Z,20.67
2018-08-16T03:09:04.590Z,20.67
2018-08-16T03:09:26.342Z,20.66
2018-08-16T03:09:48.096Z,20.67
2018-08-16T03:10:09.880Z,20.66
2018-08-16T03:10:31.626Z,20.66
2018-08-16T03:10:53.370Z,20.65
2018-08-16T03:11:15.158Z,20.66
2018-08-16T03:11:36.966Z,20.65
2018-08-16T03:11:58.722Z,20.65
2018-08-16T03:12:20.466Z,20.67
2018-08-16T03:12:42.208Z,20.68
2018-08-16T03:13:03.951Z,20.67
2018-08-16T03:13:25.923Z,20.67
2018-08-16T03:13:47.676Z,20.67
2018-08-16T03:14:09.446Z,20.68
2018-08-16T03:14:31.202Z,20.68
2018-08-16T03:14:52.963Z,20.67
2018-08-16T03:15:14.720Z,20.67
2018-08-16T03:15:36.548Z,20.67
2018-08-16T03:15:58.322Z,20.65
2018-08-16T03:16:20.108Z,20.67
2018-08-16T03:16:41.931Z,20.66
2018-08-16T03:17:03.671Z,20.65
2018-08-16T03:17:25.618Z,20.64
2018-08-16T03:17:47.387Z,20.64
2018-08-16T03:18:09.126Z,20.65
2018-08-16T03:18:30.870Z,20.66
2018-08-16T03:18:52.640Z,20.66
2018-08-16T03:19:14.399Z,20.66
2018-08-16T03:19:36.202Z,20.66
2018-08-16T03:19:57.959Z,20.66
2018-08-16T03:20:19.782Z,20.65
2018-08-16T03:20:41.564Z,20.65
2018-08-16T03:21:03.664Z,20.65
2018-08-16T03:21:25.413Z,20.65
2018-08-16T03:21:47.266Z,20.64
2018-08-16T03:22:09.044Z,20.63
2018-08-16T03:22:30.796Z,20.64
2018-08-16T03:22:52.553Z,20.65
2018-08-16T03:23:14.307Z,20.64
2018-08-16T03:23:36.094Z,20.63
2018-08-16T03:23:57.856Z,20.63
2018-08-16T03:24:19.641Z,20.62
2018-08-16T03:24:41.432Z,20.64
2018-08-16T03:25:03.222Z,20.64
2018-08-16T03:25:24.972Z,20.65
2018-08-16T03:25:46.724Z,20.65
2018-08-16T03:26:08.467Z,20.65
2018-08-16T03:26:30.262Z,20.66
2018-08-16T03:26:52.042Z,20.66
2018-08-16T03:27:13.830Z,20.65
2018-08-16T03:27:35.571Z,20.66
2018-08-16T03:27:57.325Z,20.65
2018-08-16T03:28:19.098Z,20.65
2018-08-16T03:28:40.839Z,20.66
2018-08-16T03:30:06.035Z,20.65
2018-08-16T03:30:27.788Z,20.65
2018-08-16T03:30:49.552Z,20.65
2018-08-16T03:31:11.294Z,20.65
2018-08-16T03:31:33.187Z,20.65
2018-08-16T03:31:54.980Z,20.65
2018-08-16T03:32:16.771Z,20.67
2018-08-16T03:32:38.581Z,20.66
2018-08-16T03:33:00.371Z,20.67
2018-08-16T03:33:22.130Z,20.67
2018-08-16T03:33:43.874Z,20.68
2018-08-16T03:34:05.643Z,20.67
2018-08-16T03:34:27.401Z,20.67
2018-08-16T03:34:49.159Z,20.67
2018-08-16T03:35:10.939Z,20.67
2018-08-16T03:35:32.691Z,20.67
2018-08-16T03:35:54.464Z,20.68
2018-08-16T03:36:16.214Z,20.68
2018-08-16T03:36:38.133Z,20.66
2018-08-16T03:36:59.903Z,20.66
2018-08-16T03:37:21.668Z,20.67
2018-08-16T03:37:43.430Z,20.67
2018-08-16T03:38:05.204Z,20.68
2018-08-16T03:38:26.950Z,20.69
2018-08-16T03:38:48.706Z,20.67
2018-08-16T03:39:10.492Z,20.67
2018-08-16T03:39:32.253Z,20.67
2018-08-16T03:39:54.002Z,20.67
2018-08-16T03:40:15.752Z,20.67
2018-08-16T03:40:37.496Z,20.67
2018-08-16T03:40:59.265Z,20.67
2018-08-16T03:41:21.012Z,20.66
2018-08-16T03:41:42.771Z,20.67
2018-08-16T03:42:04.510Z,20.66
2018-08-16T03:42:26.261Z,20.66
2018-08-16T03:42:48.014Z,20.67
2018-08-16T03:43:09.756Z,20.68
2018-08-16T03:43:31.510Z,20.69
2018-08-16T03:43:53.276Z,20.66
2018-08-16T03:44:15.028Z,20.67
2018-08-16T03:44:36.791Z,20.67
2018-08-16T03:44:58.550Z,20.66
2018-08-16T03:45:21.192Z,20.66
2018-08-16T03:45:42.947Z,20.66
2018-08-16T03:46:04.708Z,20.65
2018-08-16T03:46:26.459Z,20.65
2018-08-16T03:46:48.211Z,20.65
2018-08-16T03:47:09.993Z,20.65
2018-08-16T03:47:32.719Z,20.65
2018-08-16T03:47:54.466Z,20.65
2018-08-16T03:48:16.246Z,20.65
2018-08-16T03:48:37.999Z,20.67
2018-08-16T03:48:59.759Z,20.66
2018-08-16T03:49:21.510Z,20.67
2018-08-16T03:49:43.259Z,20.67
2018-08-16T03:50:05.015Z,20.68
2018-08-16T03:50:26.846Z,20.68
2018-08-16T03:50:48.678Z,20.68
2018-08-16T03:51:10.530Z,20.68
2018-08-16T03:51:32.328Z,20.67
2018-08-16T03:51:54.127Z,20.69
2018-08-16T03:52:15.900Z,20.68
2018-08-16T03:52:37.935Z,20.69
2018-08-16T03:52:59.687Z,20.67
2018-08-16T03:53:21.436Z,20.68
2018-08-16T03:53:43.186Z,20.68
2018-08-16T03:54:04.931Z,20.68
2018-08-16T03:54:26.678Z,20.68
2018-08-16T03:54:48.444Z,20.68
2018-08-16T03:55:10.236Z,20.69
2018-08-16T03:55:31.971Z,20.68
2018-08-16T03:55:53.714Z,20.68
2018-08-16T03:56:15.483Z,20.69
2018-08-16T03:56:37.251Z,20.68
2018-08-16T03:56:59.021Z,20.68
2018-08-16T03:57:20.796Z,20.68
2018-08-16T03:57:42.566Z,20.67
2018-08-16T03:58:04.323Z,20.70
2018-08-16T03:58:26.079Z,20.71
2018-08-16T03:58:47.839Z,20.70
2018-08-16T03:59:09.596Z,20.70
2018-08-16T03:59:31.343Z,20.68
2018-08-16T03:59:53.149Z,20.68
2018-08-16T04:00:14.920Z,20.66
2018-08-16T04:00:36.755Z,20.67
2018-08-16T04:00:59.014Z,20.66
2018-08-16T04:01:20.824Z,20.66
2018-08-16T04:01:42.706Z,20.67
2018-08-16T04:02:04.430Z,20.69
2018-08-16T04:02:26.182Z,20.69
2018-08-16T04:02:47.940Z,20.70
2018-08-16T04:03:09.705Z,20.72
2018-08-16T04:03:31.470Z,20.71
2018-08-16T04:03:54.112Z,20.71
2018-08-16T04:04:15.859Z,20.70
2018-08-16T04:04:37.603Z,20.70
2018-08-16T04:04:59.359Z,20.70
2018-08-16T04:05:21.124Z,20.70
2018-08-16T04:05:42.874Z,20.69
2018-08-16T04:06:04.657Z,20.70
2018-08-16T04:06:26.479Z,20.69
2018-08-16T04:06:48.320Z,20.69
2018-08-16T04:07:10.103Z,20.68
2018-08-16T04:07:31.870Z,20.67
2018-08-16T04:07:53.631Z,20.66
2018-08-16T04:08:15.394Z,20.65
2018-08-16T04:08:37.223Z,20.66
2018-08-16T04:08:59.057Z,20.66
2018-08-16T04:09:21.417Z,20.65
2018-08-16T04:09:43.167Z,20.67
2018-08-16T04:10:04.914Z,20.66
2018-08-16T04:10:26.692Z,20.67
2018-08-16T04:10:48.456Z,20.66
2018-08-16T04:11:10.303Z,20.65
2018-08-16T04:11:32.061Z,20.66
2018-08-16T04:11:53.816Z,20.65
2018-08-16T04:12:15.636Z,20.67
2018-08-16T04:12:37.399Z,20.66
2018-08-16T04:12:59.165Z,20.67
2018-08-16T04:13:20.927Z,20.69
2018-08-16T04:13:42.677Z,20.69
2018-08-16T04:14:04.680Z,20.68
2018-08-16T04:14:26.431Z,20.69
2018-08-16T04:14:48.183Z,20.70
2018-08-16T04:15:09.957Z,20.70
2018-08-16T04:15:31.727Z,20.70
2018-08-16T04:15:53.481Z,20.70
2018-08-16T04:16:15.232Z,20.70
2018-08-16T04:16:37.027Z,20.69
2018-08-16T04:16:58.802Z,20.68
2018-08-16T04:17:24.832Z,20.68
2018-08-16T04:17:46.670Z,20.67
2018-08-16T04:18:08.513Z,20.67
2018-08-16T04:18:30.275Z,20.68
2018-08-16T04:18:52.013Z,20.68
2018-08-16T04:19:13.838Z,20.68
2018-08-16T04:19:35.595Z,20.68
2018-08-16T04:19:57.730Z,20.68
2018-08-16T04:20:19.523Z,20.67
2018-08-16T04:20:41.448Z,20.68
2018-08-16T04:21:03.275Z,20.69
2018-08-16T04:21:25.075Z,20.70
2018-08-16T04:21:46.848Z,20.68
2018-08-16T04:22:09.292Z,20.69
2018-08-16T04:22:31.063Z,20.68
2018-08-16T04:22:52.847Z,20.69
2018-08-16T04:23:14.608Z,20.68
2018-08-16T04:23:36.547Z,20.67
2018-08-16T04:23:58.384Z,20.67
2018-08-16T04:24:20.071Z,20.68
2018-08-16T04:24:41.843Z,20.68
2018-08-16T04:25:03.610Z,20.69
2018-08-16T04:25:25.366Z,20.69
2018-08-16T04:25:47.137Z,20.69
2018-08-16T04:26:09.008Z,20.71
2018-08-16T04:26:30.813Z,20.70
2018-08-16T04:26:52.886Z,20.70
2018-08-16T04:27:14.673Z,20.68
2018-08-16T04:27:36.419Z,20.69
2018-08-16T04:27:58.200Z,20.69
2018-08-16T04:28:19.997Z,20.68
2018-08-16T04:28:41.766Z,20.68
2018-08-16T04:29:03.547Z,20.69
2018-08-16T04:29:25.296Z,20.68
2018-08-16T04:29:47.658Z,20.68
2018-08-16T04:30:09.431Z,20.67
2018-08-16T04:30:31.178Z,20.67
2018-08-16T04:30:52.940Z,20.68
2018-08-16T04:31:14.708Z,20.68
2018-08-16T04:31:36.467Z,20.68
2018-08-16T04:31:58.223Z,20.68
2018-08-16T04:32:20.019Z,20.68
2018-08-16T04:32:41.786Z,20.68
2018-08-16T04:33:03.544Z,20.69
2018-08-16T04:33:25.291Z,20.69
2018-08-16T04:33:47.035Z,20.69
2018-08-16T04:34:08.784Z,20.71
2018-08-16T04:34:30.538Z,20.69
2018-08-16T04:34:52.328Z,20.69
2018-08-16T04:35:14.182Z,20.67
2018-08-16T04:35:35.893Z,20.68
2018-08-16T04:35:57.627Z,20.70
2018-08-16T04:36:19.387Z,20.70
2018-08-16T04:36:41.138Z,20.69
2018-08-16T04:37:02.917Z,20.70
2018-08-16T04:37:24.832Z,20.69
2018-08-16T04:37:46.593Z,20.69
2018-08-16T04:38:08.412Z,20.68
2018-08-16T04:38:30.424Z,20.67
2018-08-16T04:38:52.220Z,20.68
2018-08-16T04:39:13.995Z,20.67
2018-08-16T04:39:35.741Z,20.68
2018-08-16T04:39:57.479Z,20.68
2018-08-16T04:40:19.267Z,20.70
2018-08-16T04:40:41.035Z,20.71
2018-08-16T04:41:03.649Z,20.70
2018-08-16T04:41:25.509Z,20.69
2018-08-16T04:41:47.392Z,20.69
2018-08-16T04:42:09.075Z,20.69
2018-08-16T04:42:30.835Z,20.68
2018-08-16T04:42:52.783Z,20.67
2018-08-16T04:43:14.539Z,20.69
2018-08-16T04:43:36.409Z,20.68
2018-08-16T04:43:58.162Z,20.69
2018-08-16T04:44:19.921Z,20.69
2018-08-16T04:44:41.767Z,20.68
2018-08-16T04:45:03.538Z,20.67
2018-08-16T04:45:25.328Z,20.68
2018-08-16T04:45:47.087Z,20.68